Time;durP1;ratioP1;P1;durP2;ratioP2;P2;SDS_P1;SDS_P2;PMS_P1;PMS_P2;Temp;Humidity;BMP_temperature;BMP_pressure;BME280_temperature;BME280_humidity;BME280_pressure;Samples;Min_cycle;Max_cycle;Signal;HPM_P1;HPM_P2
2021/11/04 00:01:45;;;;;;;3.88;1.77;;;6.80;99.90;;;;;;5013187;28;20022;-85
2021/11/04 00:04:11;;;;;;;2.97;1.52;;;6.70;99.90;;;;;;5014397;28;20026;-85
2021/11/04 00:06:37;;;;;;;3.38;1.58;;;6.70;99.90;;;;;;5013265;28;20118;-85
2021/11/04 00:09:03;;;;;;;7.50;1.92;;;6.70;99.90;;;;;;5012998;28;20018;-85
2021/11/04 00:11:29;;;;;;;5.97;1.63;;;6.60;99.90;;;;;;5012982;28;20522;-85
2021/11/04 00:13:55;;;;;;;1.90;1.20;;;6.70;99.90;;;;;;5013285;28;20052;-85
2021/11/04 00:16:21;;;;;;;4.63;1.70;;;6.80;99.90;;;;;;5012928;28;20029;-85
2021/11/04 00:18:46;;;;;;;1.88;1.40;;;6.90;99.90;;;;;;5012859;28;20036;-85
2021/11/04 00:21:12;;;;;;;3.58;1.25;;;7.00;99.90;;;;;;5012732;28;20050;-84
2021/11/04 00:23:38;;;;;;;1.40;1.00;;;7.20;99.90;;;;;;4996551;28;20038;-85
2021/11/04 00:26:04;;;;;;;2.85;1.00;;;7.40;99.90;;;;;;5012681;28;20026;-84
2021/11/04 00:28:30;;;;;;;2.65;0.90;;;7.40;99.90;;;;;;5012684;28;20026;-85
2021/11/04 00:30:56;;;;;;;1.15;1.00;;;7.40;99.90;;;;;;5012663;28;20024;-85
2021/11/04 00:33:21;;;;;;;1.52;0.95;;;7.40;99.90;;;;;;5012891;28;20030;-85
2021/11/04 00:35:47;;;;;;;2.38;1.00;;;7.50;99.90;;;;;;5013153;28;20386;-85
2021/11/04 00:38:13;;;;;;;2.03;1.23;;;7.50;99.90;;;;;;5012023;28;20430;-85
2021/11/04 00:40:39;;;;;;;3.40;1.10;;;7.50;99.90;;;;;;5013728;28;20386;-85
2021/11/04 00:43:05;;;;;;;1.35;1.00;;;7.40;99.90;;;;;;5012512;28;20121;-85
2021/11/04 00:45:30;;;;;;;1.75;1.38;;;7.30;99.90;;;;;;5013022;28;20466;-85
2021/11/04 00:47:56;;;;;;;1.98;1.10;;;7.30;99.90;;;;;;5013640;28;20033;-85
2021/11/04 00:50:24;;;;;;;6.82;1.33;;;7.30;99.90;;;;;;5012360;28;20035;-84
2021/11/04 00:52:50;;;;;;;3.10;1.13;;;7.30;99.90;;;;;;5012316;28;20018;-85
2021/11/04 00:55:16;;;;;;;1.83;1.45;;;7.30;99.90;;;;;;5012351;28;20033;-84
2021/11/04 00:57:43;;;;;;;1.60;1.27;;;7.10;99.90;;;;;;5013499;28;20030;-84
2021/11/04 01:00:13;;;;;;;3.08;1.05;;;7.20;99.90;;;;;;5012224;28;20477;-85
2021/11/04 01:02:40;;;;;;;1.40;1.00;;;7.30;99.90;;;;;;5012258;28;20037;-84
2021/11/04 01:05:07;;;;;;;2.38;0.93;;;7.40;99.90;;;;;;5013597;28;20101;-84
2021/11/04 01:07:33;;;;;;;1.63;0.80;;;7.30;99.90;;;;;;5013332;28;20433;-84
2021/11/04 01:09:58;;;;;;;0.98;0.82;;;7.40;99.90;;;;;;5016534;28;20080;-84
2021/11/04 01:12:24;;;;;;;1.05;0.80;;;7.50;99.90;;;;;;5014763;28;20022;-85
2021/11/04 01:14:50;;;;;;;1.15;0.70;;;7.50;99.90;;;;;;5012420;28;20029;-85
2021/11/04 01:17:16;;;;;;;2.65;0.80;;;7.40;99.90;;;;;;5012427;28;20440;-85
2021/11/04 01:19:41;;;;;;;2.95;0.90;;;7.40;99.90;;;;;;5014042;28;20029;-85
2021/11/04 01:22:07;;;;;;;1.05;0.70;;;7.40;99.90;;;;;;5015626;28;20029;-84
2021/11/04 01:24:33;;;;;;;0.98;0.88;;;7.40;99.90;;;;;;5015234;28;20485;-85
2021/11/04 01:26:59;;;;;;;0.95;0.80;;;7.40;99.90;;;;;;5015496;28;20032;-85
2021/11/04 01:29:25;;;;;;;1.00;0.70;;;7.40;99.90;;;;;;5032961;28;20538;-85
2021/11/04 01:31:50;;;;;;;1.20;0.90;;;7.30;99.90;;;;;;5033423;28;20101;-84
2021/11/04 01:34:16;;;;;;;1.05;0.70;;;7.40;99.90;;;;;;5032966;28;20060;-85
2021/11/04 01:36:42;;;;;;;0.70;0.60;;;7.50;99.90;;;;;;5015130;28;20022;-84
2021/11/04 01:39:08;;;;;;;1.35;0.90;;;7.50;99.90;;;;;;5016001;28;20025;-85
2021/11/04 01:41:34;;;;;;;2.40;0.80;;;7.50;99.90;;;;;;5015102;28;20124;-85
2021/11/04 01:44:00;;;;;;;1.33;0.75;;;7.60;99.90;;;;;;5015095;28;20029;-85
2021/11/04 01:46:26;;;;;;;2.22;0.80;;;7.60;99.90;;;;;;5033090;28;20065;-85
2021/11/04 01:48:52;;;;;;;0.73;0.68;;;7.50;99.90;;;;;;5015023;28;20033;-85
2021/11/04 01:51:19;;;;;;;1.75;1.00;;;7.50;99.90;;;;;;5017027;28;20018;-84
2021/11/04 01:53:45;;;;;;;0.75;0.68;;;7.40;99.90;;;;;;5036569;28;20028;-84
2021/11/04 01:56:11;;;;;;;0.93;0.70;;;7.50;99.90;;;;;;5019200;28;20028;-84
2021/11/04 01:58:37;;;;;;;2.25;0.90;;;7.60;99.90;;;;;;5036436;28;20036;-85
2021/11/04 02:01:04;;;;;;;1.88;0.88;;;7.50;99.90;;;;;;5036418;28;20029;-85
2021/11/04 02:03:43;;;;;;;1.23;0.80;;;7.40;99.90;;;;;;5018656;28;20025;-84
2021/11/04 02:06:32;;;;;;;1.42;0.77;;;7.30;99.90;;;;;;5018599;28;20083;-84
2021/11/04 02:09:05;;;;;;;2.17;0.70;;;7.20;99.90;;;;;;5018775;28;20555;-85
2021/11/04 02:11:52;;;;;;;0.90;0.70;;;7.20;99.90;;;;;;5003371;28;20519;-85
2021/11/04 02:14:29;;;;;;;0.70;0.60;;;7.20;99.90;;;;;;5018541;28;20028;-85
2021/11/04 02:16:58;;;;;;;0.50;0.50;;;7.30;99.90;;;;;;5019330;28;20025;-85
2021/11/04 02:19:46;;;;;;;1.60;0.82;;;7.30;99.90;;;;;;5018447;28;20446;-85
2021/11/04 02:22:25;;;;;;;1.25;0.60;;;7.30;99.90;;;;;;5018869;28;20045;-84
2021/11/04 02:24:59;;;;;;;6.03;0.80;;;7.30;99.90;;;;;;5018262;28;20030;-85
2021/11/04 02:27:26;;;;;;;0.93;0.60;;;7.30;99.90;;;;;;5018285;28;20489;-85
2021/11/04 02:29:53;;;;;;;0.75;0.60;;;7.40;99.90;;;;;;5018086;28;20025;-84
2021/11/04 02:32:19;;;;;;;3.55;0.93;;;7.50;99.90;;;;;;5018045;28;20021;-85
2021/11/04 02:34:46;;;;;;;1.20;0.73;;;7.50;99.90;;;;;;5018934;28;20025;-85
2021/11/04 02:37:12;;;;;;;1.67;0.63;;;7.40;99.90;;;;;;5017991;28;20047;-85
2021/11/04 02:39:39;;;;;;;1.00;0.57;;;7.40;99.90;;;;;;5017933;28;20029;-85
2021/11/04 02:42:06;;;;;;;1.08;0.60;;;7.50;99.90;;;;;;5035655;28;20028;-86
2021/11/04 02:44:34;;;;;;;0.88;0.60;;;7.50;99.90;;;;;;5017817;28;20044;-85
2021/11/04 02:46:59;;;;;;;0.85;0.60;;;7.40;99.90;;;;;;5017731;28;20025;-85
2021/11/04 02:49:26;;;;;;;0.75;0.60;;;7.40;99.90;;;;;;5017803;28;20025;-85
2021/11/04 02:51:53;;;;;;;0.55;0.40;;;7.40;99.90;;;;;;5017681;28;20029;-85
2021/11/04 02:54:19;;;;;;;2.95;0.63;;;7.40;99.90;;;;;;5017676;28;20409;-85
2021/11/04 02:56:51;;;;;;;0.95;0.65;;;7.20;99.90;;;;;;5017585;28;20022;-84
2021/11/04 02:59:19;;;;;;;2.58;0.70;;;7.20;99.90;;;;;;5017681;28;20477;-85
2021/11/04 03:01:47;;;;;;;1.02;0.70;;;7.20;99.90;;;;;;5017423;28;20036;-85
2021/11/04 03:04:15;;;;;;;1.35;0.40;;;7.10;99.90;;;;;;5035983;28;20148;-85
2021/11/04 03:06:42;;;;;;;0.80;0.70;;;7.20;99.90;;;;;;5035184;28;20159;-84
2021/11/04 03:09:08;;;;;;;0.73;0.40;;;7.00;99.90;;;;;;5017450;28;20025;-85
2021/11/04 03:11:33;;;;;;;3.63;0.52;;;7.00;99.90;;;;;;5017405;28;20385;-85
2021/11/04 03:14:00;;;;;;;0.45;0.40;;;7.00;99.90;;;;;;5017483;28;20103;-85
2021/11/04 03:16:30;;;;;;;0.40;0.32;;;7.10;99.90;;;;;;5024969;28;20021;-85
2021/11/04 03:18:57;;;;;;;1.45;0.50;;;7.10;99.90;;;;;;5029376;28;20029;-84
2021/11/04 03:21:24;;;;;;;1.33;0.38;;;7.10;99.90;;;;;;5039058;28;20508;-85
2021/11/04 03:23:49;;;;;;;0.45;0.40;;;7.20;99.90;;;;;;5036051;28;20029;-85
2021/11/04 03:26:16;;;;;;;0.30;0.30;;;7.20;99.90;;;;;;5035378;28;20041;-85
2021/11/04 03:28:43;;;;;;;0.60;0.40;;;7.20;99.90;;;;;;5035314;28;20025;-85
2021/11/04 03:31:10;;;;;;;1.27;0.50;;;7.20;99.90;;;;;;5017160;28;20128;-85
2021/11/04 03:33:37;;;;;;;1.13;0.40;;;7.20;99.90;;;;;;5017386;28;20025;-85
2021/11/04 03:36:03;;;;;;;3.80;0.50;;;7.20;99.90;;;;;;5034822;28;20025;-85
2021/11/04 03:38:30;;;;;;;0.43;0.40;;;7.20;99.90;;;;;;5034761;28;20499;-85
2021/11/04 03:40:58;;;;;;;3.80;0.55;;;7.30;99.90;;;;;;5017698;28;20025;-85
2021/11/04 03:43:25;;;;;;;1.35;0.50;;;7.20;99.90;;;;;;5016848;28;20029;-85
2021/11/04 03:45:51;;;;;;;1.02;0.50;;;7.20;99.90;;;;;;5034514;28;20021;-85
2021/11/04 03:48:18;;;;;;;1.02;0.70;;;7.30;99.90;;;;;;5034514;28;20389;-84
2021/11/04 03:50:45;;;;;;;1.05;0.70;;;7.40;99.90;;;;;;5016604;28;20112;-85
2021/11/04 03:53:11;;;;;;;1.95;0.50;;;7.40;99.90;;;;;;5016727;28;20105;-85
2021/11/04 03:55:37;;;;;;;1.00;0.50;;;7.40;99.90;;;;;;5016560;28;20060;-85
2021/11/04 03:58:03;;;;;;;0.47;0.47;;;7.30;99.90;;;;;;5016795;28;20133;-85
2021/11/04 04:00:29;;;;;;;0.47;0.47;;;7.40;99.90;;;;;;5034461;28;20396;-85
2021/11/04 04:02:55;;;;;;;1.25;0.35;;;7.20;99.90;;;;;;5017330;28;20021;-85
2021/11/04 04:05:32;;;;;;;6.07;0.60;;;7.10;99.90;;;;;;5016727;28;20029;-85
2021/11/04 04:07:58;;;;;;;0.35;0.35;;;7.20;99.90;;;;;;5017072;28;20025;-85
2021/11/04 04:10:26;;;;;;;0.30;0.30;;;7.20;99.90;;;;;;5016134;28;20026;-85
2021/11/04 04:12:53;;;;;;;0.32;0.32;;;7.10;99.90;;;;;;4999567;28;20058;-85
2021/11/04 04:15:19;;;;;;;0.47;0.30;;;7.20;99.90;;;;;;5016015;28;20026;-85
2021/11/04 04:17:45;;;;;;;0.40;0.32;;;7.20;99.90;;;;;;5016245;28;20035;-85
2021/11/04 04:20:11;;;;;;;1.15;0.40;;;7.10;99.90;;;;;;5012710;28;20125;-85
2021/11/04 04:22:37;;;;;;;0.50;0.30;;;6.90;99.90;;;;;;5012814;28;20192;-85
2021/11/04 04:25:04;;;;;;;0.40;0.40;;;7.00;99.90;;;;;;5013396;28;20038;-85
2021/11/04 04:27:31;;;;;;;3.42;0.40;;;7.10;99.90;;;;;;5012700;28;20052;-85
2021/11/04 04:29:56;;;;;;;0.82;0.38;;;7.10;99.90;;;;;;5012725;28;20022;-85
2021/11/04 04:32:22;;;;;;;0.30;0.30;;;7.10;99.90;;;;;;5012701;28;20092;-85
2021/11/04 04:34:48;;;;;;;0.28;0.28;;;7.10;99.90;;;;;;5012900;28;20033;-85
2021/11/04 04:37:14;;;;;;;0.30;0.30;;;7.10;99.90;;;;;;5014455;28;20033;-85
2021/11/04 04:39:40;;;;;;;0.45;0.40;;;7.00;99.90;;;;;;5012592;28;20032;-85
2021/11/04 04:42:06;;;;;;;0.25;0.25;;;7.10;99.90;;;;;;5012512;28;20168;-85
2021/11/04 04:44:33;;;;;;;0.38;0.38;;;7.10;99.90;;;;;;5012485;28;20025;-85
2021/11/04 04:46:59;;;;;;;0.30;0.30;;;7.00;99.90;;;;;;5013638;28;20410;-85
2021/11/04 04:49:24;;;;;;;0.25;0.25;;;6.90;99.90;;;;;;5012759;28;20052;-85
2021/11/04 04:51:50;;;;;;;0.20;0.20;;;6.90;99.90;;;;;;5012442;28;20371;-86
2021/11/04 04:54:17;;;;;;;0.50;0.32;;;6.80;99.90;;;;;;5012629;28;20386;-84
2021/11/04 04:56:42;;;;;;;0.30;0.30;;;6.70;99.90;;;;;;5012286;28;20036;-85
2021/11/04 04:59:08;;;;;;;0.98;0.28;;;6.60;99.90;;;;;;5012711;28;20116;-86
2021/11/04 05:01:34;;;;;;;0.22;0.20;;;6.60;99.90;;;;;;5012275;28;20080;-85
2021/11/04 05:04:00;;;;;;;0.55;0.30;;;6.70;99.90;;;;;;5014049;28;20469;-84
2021/11/04 05:06:26;;;;;;;0.40;0.30;;;6.70;99.90;;;;;;5012730;28;20026;-86
2021/11/04 05:08:51;;;;;;;0.40;0.30;;;6.70;99.90;;;;;;5013218;28;20373;-85
2021/11/04 05:11:17;;;;;;;0.32;0.30;;;6.70;99.90;;;;;;5012158;28;20026;-84
2021/11/04 05:13:43;;;;;;;0.20;0.20;;;6.70;99.90;;;;;;5013467;28;20022;-85
2021/11/04 05:16:09;;;;;;;0.75;0.40;;;6.60;99.90;;;;;;5012335;28;20030;-84
2021/11/04 05:18:35;;;;;;;1.00;0.40;;;6.50;99.90;;;;;;5012191;28;20034;-85
2021/11/04 05:21:00;;;;;;;1.63;0.47;;;6.50;99.90;;;;;;5011982;28;20056;-84
2021/11/04 05:23:26;;;;;;;0.63;0.57;;;6.40;99.90;;;;;;5015006;28;20117;-84
2021/11/04 05:25:52;;;;;;;0.65;0.45;;;6.50;99.90;;;;;;5024655;28;20022;-84
2021/11/04 05:28:18;;;;;;;0.40;0.40;;;6.50;99.90;;;;;;5025323;28;20097;-85
2021/11/04 05:30:44;;;;;;;0.82;0.60;;;6.50;99.90;;;;;;5016890;28;20048;-85
2021/11/04 05:33:10;;;;;;;0.60;0.52;;;6.50;99.90;;;;;;5016113;28;20034;-85
2021/11/04 05:35:36;;;;;;;0.70;0.50;;;6.50;99.90;;;;;;5015953;28;20125;-85
2021/11/04 05:38:02;;;;;;;0.30;0.30;;;6.70;99.90;;;;;;5015858;28;20075;-85
2021/11/04 05:40:28;;;;;;;2.78;0.80;;;6.70;99.90;;;;;;5015844;28;20482;-86
2021/11/04 05:42:54;;;;;;;1.20;0.85;;;6.80;99.90;;;;;;5015843;28;20033;-86
2021/11/04 05:45:20;;;;;;;0.80;0.70;;;6.80;99.90;;;;;;5016244;28;20045;-85
2021/11/04 05:47:45;;;;;;;1.15;0.85;;;6.90;99.90;;;;;;5015601;28;20033;-85
2021/11/04 05:50:12;;;;;;;0.80;0.60;;;6.70;99.90;;;;;;5016960;28;20026;-85
2021/11/04 05:52:38;;;;;;;0.75;0.50;;;6.80;99.90;;;;;;5015651;28;20022;-86
2021/11/04 05:55:04;;;;;;;0.60;0.50;;;6.90;99.90;;;;;;5016886;28;20097;-85
2021/11/04 05:57:30;;;;;;;0.40;0.30;;;6.90;99.90;;;;;;5016820;28;20536;-85
2021/11/04 05:59:56;;;;;;;0.85;0.50;;;6.80;99.90;;;;;;5015460;28;20022;-85
2021/11/04 06:02:22;;;;;;;0.80;0.60;;;6.70;99.90;;;;;;5015771;28;20080;-85
2021/11/04 06:04:47;;;;;;;0.90;0.50;;;6.70;99.90;;;;;;5015423;28;20117;-86
2021/11/04 06:07:15;;;;;;;5.43;1.40;;;6.80;99.90;;;;;;5015301;28;20113;-85
2021/11/04 06:09:41;;;;;;;0.55;0.50;;;6.90;99.90;;;;;;5015247;28;20026;-85
2021/11/04 06:12:08;;;;;;;0.47;0.40;;;6.90;99.90;;;;;;5016852;28;20421;-85
2021/11/04 06:14:34;;;;;;;0.68;0.50;;;6.80;99.90;;;;;;5016525;28;20081;-85
2021/11/04 06:17:00;;;;;;;2.55;0.60;;;6.80;99.90;;;;;;5016460;28;20050;-85
2021/11/04 06:19:26;;;;;;;0.77;0.55;;;6.70;99.90;;;;;;5016430;28;20064;-85
2021/11/04 06:21:52;;;;;;;1.38;0.50;;;6.80;99.90;;;;;;5014867;28;20049;-85
2021/11/04 06:24:17;;;;;;;0.93;0.68;;;6.80;99.90;;;;;;5015072;28;20402;-85
2021/11/04 06:26:43;;;;;;;2.25;0.80;;;6.80;99.90;;;;;;5014906;28;20033;-85
2021/11/04 06:29:09;;;;;;;2.17;1.17;;;6.80;99.90;;;;;;5014915;28;20026;-85
2021/11/04 06:31:35;;;;;;;1.20;0.88;;;6.70;99.90;;;;;;5014945;28;20029;-85
2021/11/04 06:34:01;;;;;;;0.90;0.60;;;6.70;99.90;;;;;;5014934;28;20025;-85
2021/11/04 06:36:27;;;;;;;0.40;0.40;;;6.70;99.90;;;;;;5013905;28;20104;-85
2021/11/04 06:38:53;;;;;;;0.70;0.43;;;6.80;99.90;;;;;;5014747;28;20030;-85
2021/11/04 06:41:19;;;;;;;0.50;0.40;;;6.80;99.90;;;;;;5015009;28;20212;-85
2021/11/04 06:43:45;;;;;;;1.73;0.50;;;6.90;99.90;;;;;;5015956;28;20109;-85
2021/11/04 06:46:13;;;;;;;0.60;0.52;;;7.00;99.90;;;;;;5014546;28;20585;-85
2021/11/04 06:48:45;;;;;;;0.70;0.50;;;7.00;99.90;;;;;;5015842;28;20172;-85
2021/11/04 06:51:17;;;;;;;0.50;0.43;;;7.00;99.90;;;;;;5014677;28;20025;-85
2021/11/04 06:53:45;;;;;;;0.50;0.40;;;7.00;99.90;;;;;;4999043;28;20033;-85
2021/11/04 06:56:13;;;;;;;2.70;0.60;;;7.00;99.90;;;;;;5015691;28;20033;-85
2021/11/04 06:58:46;;;;;;;0.60;0.50;;;7.10;99.90;;;;;;5014520;28;20033;-85
2021/11/04 07:01:15;;;;;;;1.20;0.70;;;7.10;99.90;;;;;;5014993;28;20130;-85
2021/11/04 07:04:02;;;;;;;2.25;0.50;;;7.10;99.90;;;;;;5015629;28;20030;-85
2021/11/04 07:06:31;;;;;;;0.75;0.50;;;7.20;99.90;;;;;;5015062;28;20500;-86
2021/11/04 07:08:59;;;;;;;1.00;0.60;;;7.10;99.90;;;;;;5014227;28;20056;-85
2021/11/04 07:11:32;;;;;;;1.17;0.52;;;7.10;99.90;;;;;;5014561;28;20053;-85
2021/11/04 07:13:57;;;;;;;2.55;0.60;;;7.10;99.90;;;;;;5015672;28;20028;-85
2021/11/04 07:16:25;;;;;;;0.52;0.47;;;7.10;99.90;;;;;;5014066;28;20018;-85
2021/11/04 07:18:53;;;;;;;0.95;0.63;;;7.10;99.90;;;;;;5014017;28;20056;-85
2021/11/04 07:21:27;;;;;;;0.40;0.40;;;7.10;99.90;;;;;;5014051;28;20616;-85
2021/11/04 07:24:04;;;;;;;0.70;0.60;;;7.20;99.90;;;;;;5014017;28;20080;-85
2021/11/04 07:26:45;;;;;;;1.48;0.60;;;7.20;99.90;;;;;;5013937;28;20030;-86
2021/11/04 07:29:13;;;;;;;3.83;0.90;;;6.90;99.90;;;;;;5019161;28;20082;-85
2021/11/04 07:31:42;;;;;;;1.17;0.88;;;6.90;99.90;;;;;;5024368;28;20026;-84
2021/11/04 07:34:10;;;;;;;0.80;0.70;;;7.00;99.90;;;;;;5019483;28;20382;-85
2021/11/04 07:36:39;;;;;;;3.20;0.80;;;7.10;99.90;;;;;;5016230;28;20147;-85
2021/11/04 07:39:07;;;;;;;0.80;0.70;;;7.10;99.90;;;;;;5014249;28;20079;-85
2021/11/04 07:41:34;;;;;;;0.77;0.68;;;7.20;99.90;;;;;;5013861;28;20026;-86
2021/11/04 07:44:01;;;;;;;1.63;0.90;;;7.10;99.90;;;;;;5014830;28;20119;-85
2021/11/04 07:46:28;;;;;;;2.30;0.80;;;7.10;99.90;;;;;;5014724;28;20026;-85
2021/11/04 07:48:55;;;;;;;0.57;0.50;;;7.20;99.90;;;;;;5013359;28;20022;-84
2021/11/04 07:51:22;;;;;;;1.20;1.10;;;7.30;99.90;;;;;;5013517;28;20109;-85
2021/11/04 07:53:48;;;;;;;3.78;1.40;;;7.20;99.90;;;;;;5013364;28;20018;-85
2021/11/04 07:56:14;;;;;;;1.90;1.00;;;7.20;99.90;;;;;;5013308;28;20030;-85
2021/11/04 07:58:40;;;;;;;1.00;0.80;;;7.30;99.90;;;;;;5013286;28;20026;-85
2021/11/04 08:01:05;;;;;;;1.40;0.98;;;7.30;99.90;;;;;;5013282;28;20042;-85
2021/11/04 08:03:32;;;;;;;2.88;1.77;;;7.30;99.90;;;;;;5013496;28;20126;-85
2021/11/04 08:05:58;;;;;;;9.30;4.00;;;7.20;99.90;;;;;;5013104;28;20117;-86
2021/11/04 08:08:24;;;;;;;4.35;1.58;;;7.20;99.90;;;;;;5013155;28;20108;-85
2021/11/04 08:10:54;;;;;;;2.92;1.48;;;7.30;99.90;;;;;;5013009;28;20478;-86
2021/11/04 08:13:21;;;;;;;1.58;1.33;;;7.20;99.90;;;;;;5013134;28;20052;-85
2021/11/04 08:15:47;;;;;;;1.65;1.13;;;7.10;99.90;;;;;;5014584;28;20024;-85
2021/11/04 08:18:12;;;;;;;3.22;1.17;;;6.90;99.90;;;;;;5012938;28;20022;-85
2021/11/04 08:20:38;;;;;;;2.35;1.40;;;7.00;99.90;;;;;;5012761;28;20069;-85
2021/11/04 08:23:09;;;;;;;1.88;1.40;;;7.10;99.90;;;;;;5012845;28;20030;-85
2021/11/04 08:25:35;;;;;;;3.38;1.30;;;7.00;99.90;;;;;;5012821;28;20109;-85
2021/11/04 08:28:01;;;;;;;1.80;1.23;;;7.00;99.90;;;;;;5012756;28;20042;-85
2021/11/04 08:30:27;;;;;;;1.33;1.20;;;7.00;99.90;;;;;;5012767;28;20025;-85
2021/11/04 08:32:52;;;;;;;1.50;1.00;;;7.10;99.90;;;;;;5012722;28;20026;-86
2021/11/04 08:35:18;;;;;;;5.03;1.50;;;7.10;99.90;;;;;;5014000;28;20486;-86
2021/11/04 08:37:45;;;;;;;2.22;1.13;;;7.20;99.90;;;;;;5012680;28;20029;-85
2021/11/04 08:40:11;;;;;;;1.55;1.00;;;7.20;99.90;;;;;;5012557;28;20482;-86
2021/11/04 08:42:38;;;;;;;1.30;0.93;;;7.20;99.90;;;;;;5012583;28;20025;-86
2021/11/04 08:45:04;;;;;;;1.27;0.98;;;7.20;99.90;;;;;;5012568;28;20033;-86
2021/11/04 08:47:30;;;;;;;1.85;1.00;;;7.20;99.90;;;;;;5012490;28;20105;-86
2021/11/04 08:49:58;;;;;;;2.83;0.90;;;7.20;99.90;;;;;;5012420;28;20432;-85
2021/11/04 08:52:25;;;;;;;1.08;0.80;;;7.20;99.90;;;;;;5012543;28;20026;-86
2021/11/04 08:54:51;;;;;;;1.95;1.00;;;7.20;99.90;;;;;;5012410;28;20022;-86
2021/11/04 08:57:17;;;;;;;2.88;1.10;;;7.20;99.90;;;;;;5012274;28;20026;-86
2021/11/04 08:59:45;;;;;;;1.90;1.23;;;7.30;99.90;;;;;;5011895;28;20033;-86
2021/11/04 09:02:13;;;;;;;2.80;1.70;;;7.30;99.90;;;;;;5012276;28;20030;-86
2021/11/04 09:04:42;;;;;;;3.72;2.08;;;7.40;99.90;;;;;;5012288;28;20057;-86
2021/11/04 09:07:20;;;;;;;3.90;2.30;;;7.40;99.90;;;;;;5012155;28;20033;-86
2021/11/04 09:09:48;;;;;;;7.57;1.70;;;7.30;99.90;;;;;;5012216;28;20025;-86
2021/11/04 09:12:14;;;;;;;3.28;1.00;;;7.30;99.90;;;;;;5012457;28;20022;-85
2021/11/04 09:14:41;;;;;;;2.92;1.63;;;7.20;99.90;;;;;;5012176;28;20026;-86
2021/11/04 09:17:07;;;;;;;3.17;1.58;;;7.20;99.90;;;;;;5012118;28;20068;-87
2021/11/04 09:19:33;;;;;;;1.40;0.95;;;7.20;99.90;;;;;;5012103;28;20056;-86
2021/11/04 09:22:00;;;;;;;1.20;0.80;;;7.20;99.90;;;;;;5012051;28;20050;-87
2021/11/04 09:24:27;;;;;;;1.52;0.80;;;7.20;99.90;;;;;;5012390;28;20030;-87
2021/11/04 09:26:58;;;;;;;0.80;0.70;;;7.20;99.90;;;;;;5012082;28;20398;-86
2021/11/04 09:29:25;;;;;;;4.28;1.30;;;7.30;99.90;;;;;;5012130;28;20022;-86
2021/11/04 09:31:53;;;;;;;1.20;0.60;;;7.30;99.90;;;;;;5013382;28;20026;-87
2021/11/04 09:34:20;;;;;;;0.85;0.52;;;7.20;99.90;;;;;;5012129;28;20042;-87
2021/11/04 09:36:45;;;;;;;0.70;0.50;;;7.10;99.90;;;;;;5012435;28;20026;-88
2021/11/04 09:39:11;;;;;;;1.02;0.52;;;6.90;99.90;;;;;;5026875;28;20030;-85
2021/11/04 09:41:37;;;;;;;0.93;0.63;;;6.90;99.90;;;;;;5031044;28;20030;-88
2021/11/04 09:44:04;;;;;;;3.00;1.50;;;6.90;99.90;;;;;;5015489;28;20105;-87
2021/11/04 09:46:34;;;;;;;5.43;1.42;;;7.00;99.90;;;;;;5014030;28;20026;-86
2021/11/04 09:49:00;;;;;;;1.15;0.75;;;6.90;99.90;;;;;;5013721;28;20057;-87
2021/11/04 09:51:25;;;;;;;0.70;0.60;;;7.00;99.90;;;;;;5013403;28;20131;-87
2021/11/04 09:53:52;;;;;;;0.90;0.70;;;7.20;99.90;;;;;;5012014;28;20494;-87
2021/11/04 09:56:18;;;;;;;1.23;0.77;;;7.20;99.90;;;;;;5011743;28;20375;-87
2021/11/04 09:58:46;;;;;;;0.85;0.55;;;7.30;99.90;;;;;;5011670;28;20025;-87
2021/11/04 10:01:21;;;;;;;0.98;0.50;;;7.30;99.90;;;;;;5013298;28;20018;-88
2021/11/04 10:03:47;;;;;;;1.48;0.40;;;7.30;99.90;;;;;;5011997;28;20049;-87
2021/11/04 10:06:29;;;;;;;1.17;0.70;;;7.30;99.90;;;;;;5011652;28;20111;-87
2021/11/04 10:08:58;;;;;;;2.28;0.70;;;7.40;99.90;;;;;;5011802;28;20029;-88
2021/11/04 10:11:36;;;;;;;4.25;0.90;;;7.50;99.90;;;;;;5013605;28;20425;-87
2021/11/04 10:14:08;;;;;;;0.40;0.40;;;7.60;99.90;;;;;;5016730;28;20021;-87
2021/11/04 10:16:35;;;;;;;0.60;0.60;;;7.50;99.90;;;;;;5015392;28;20054;-87
2021/11/04 10:19:07;;;;;;;1.52;0.60;;;7.50;99.90;;;;;;5015328;28;20100;-88
2021/11/04 10:21:36;;;;;;;1.17;0.60;;;7.50;99.90;;;;;;5015418;28;20052;-88
2021/11/04 10:24:04;;;;;;;0.90;0.70;;;7.50;99.90;;;;;;5016472;28;20050;-88
2021/11/04 10:26:35;;;;;;;1.15;0.70;;;7.60;99.90;;;;;;5015603;28;20034;-88
2021/11/04 10:29:06;;;;;;;1.00;0.75;;;7.50;99.90;;;;;;5015105;28;20034;-87
2021/11/04 10:31:44;;;;;;;1.83;1.00;;;7.50;99.90;;;;;;4998653;28;20053;-86
2021/11/04 10:34:27;;;;;;;0.70;0.65;;;7.40;99.90;;;;;;5015009;28;20018;-87
2021/11/04 10:36:54;;;;;;;1.30;0.75;;;7.50;99.90;;;;;;5015216;28;20030;-87
2021/11/04 10:39:28;;;;;;;1.10;0.80;;;7.40;99.90;;;;;;5015436;28;20025;-89
2021/11/04 10:41:56;;;;;;;1.50;0.90;;;7.30;99.90;;;;;;5015730;28;20026;-87
2021/11/04 10:44:23;;;;;;;1.13;0.95;;;7.40;99.90;;;;;;5014924;28;20030;-87
2021/11/04 10:46:56;;;;;;;1.60;1.10;;;7.20;99.90;;;;;;5014705;28;20037;-88
2021/11/04 10:49:23;;;;;;;1.50;1.10;;;7.10;99.90;;;;;;5015768;28;20480;-87
2021/11/04 10:52:05;;;;;;;1.23;1.10;;;7.10;99.90;;;;;;5014519;28;20500;-87
2021/11/04 10:54:54;;;;;;;1.83;1.27;;;7.10;99.90;;;;;;5014650;28;20440;-87
2021/11/04 10:57:39;;;;;;;1.80;1.40;;;7.20;99.90;;;;;;5014389;28;20030;-86
2021/11/04 11:00:18;;;;;;;3.22;1.83;;;7.40;99.90;;;;;;5012000;28;20026;-86
2021/11/04 11:03:11;;;;;;;2.80;2.03;;;7.30;99.90;;;;;;5014320;28;20050;-86
2021/11/04 11:05:42;;;;;;;2.28;1.70;;;7.20;99.90;;;;;;5014352;28;20026;-86
2021/11/04 11:08:10;;;;;;;2.22;1.63;;;7.00;99.90;;;;;;5014367;28;20453;-86
2021/11/04 11:10:36;;;;;;;2.95;2.03;;;6.90;99.90;;;;;;5015492;28;20026;-86
2021/11/04 11:13:09;;;;;;;3.22;2.30;;;6.90;99.90;;;;;;5014108;28;20022;-86
2021/11/04 11:15:37;;;;;;;4.22;2.83;;;7.00;99.90;;;;;;5014137;28;20026;-85
2021/11/04 11:18:05;;;;;;;3.67;2.65;;;7.00;99.90;;;;;;5015261;28;20026;-85
2021/11/04 11:20:33;;;;;;;5.18;3.13;;;7.10;99.90;;;;;;5013823;28;20038;-85
2021/11/04 11:23:02;;;;;;;6.38;3.13;;;7.20;99.90;;;;;;5013611;28;20024;-85
2021/11/04 11:25:32;;;;;;;3.58;3.00;;;7.20;99.90;;;;;;5015211;28;20096;-85
2021/11/04 11:27:58;;;;;;;3.80;3.17;;;7.20;99.90;;;;;;5013864;28;20037;-86
2021/11/04 11:30:24;;;;;;;3.40;2.80;;;7.20;99.90;;;;;;5013932;28;20386;-86
2021/11/04 11:32:56;;;;;;;4.50;3.50;;;7.30;99.90;;;;;;5013712;28;20470;-86
2021/11/04 11:35:22;;;;;;;3.05;2.70;;;7.40;99.90;;;;;;5014541;28;20026;-87
2021/11/04 11:38:06;;;;;;;4.30;3.38;;;7.50;99.90;;;;;;5013678;28;20493;-86
2021/11/04 11:40:33;;;;;;;5.35;3.85;;;7.60;99.90;;;;;;5013684;28;20025;-85
2021/11/04 11:43:03;;;;;;;5.57;3.97;;;7.60;99.90;;;;;;5013598;28;20034;-86
2021/11/04 11:45:31;;;;;;;3.88;3.40;;;7.60;99.90;;;;;;5013810;28;20046;-86
2021/11/04 11:48:17;;;;;;;5.30;4.00;;;7.60;99.90;;;;;;5016909;28;20085;-84
2021/11/04 11:50:45;;;;;;;4.97;3.67;;;7.60;99.90;;;;;;5021905;28;20123;-87
2021/11/04 11:53:30;;;;;;;5.00;4.07;;;7.50;99.90;;;;;;5017002;28;20026;-85
2021/11/04 11:55:58;;;;;;;10.40;4.28;;;7.50;99.90;;;;;;5014306;28;20069;-86
2021/11/04 11:58:30;;;;;;;8.15;4.75;;;7.50;99.90;;;;;;5014111;28;20478;-84
2021/11/04 12:01:06;;;;;;;3.90;3.30;;;7.50;99.90;;;;;;5013375;28;20478;-86
2021/11/04 12:03:32;;;;;;;5.78;4.70;;;7.50;99.90;;;;;;5013301;28;20030;-86
2021/11/04 12:05:59;;;;;;;9.95;5.70;;;7.40;99.90;;;;;;5013916;28;20030;-85
2021/11/04 12:08:27;;;;;;;5.43;4.45;;;7.50;99.90;;;;;;5013136;28;20034;-85
2021/11/04 12:10:57;;;;;;;4.50;3.90;;;7.60;99.90;;;;;;5013962;28;20026;-86
2021/11/04 12:13:44;;;;;;;5.30;4.28;;;7.60;99.90;;;;;;5014302;28;20022;-84
2021/11/04 12:16:22;;;;;;;4.35;3.50;;;7.60;99.90;;;;;;5012982;28;20089;-83
2021/11/04 12:19:06;;;;;;;3.83;3.13;;;7.80;99.90;;;;;;5014180;28;20018;-85
2021/11/04 12:21:37;;;;;;;8.30;3.25;;;7.70;99.90;;;;;;5012701;28;20509;-84
2021/11/04 12:24:05;;;;;;;3.13;2.67;;;7.60;99.90;;;;;;5014113;28;20033;-85
2021/11/04 12:26:34;;;;;;;3.00;2.55;;;7.50;99.90;;;;;;5014049;28;20370;-87
2021/11/04 12:29:10;;;;;;;2.88;2.15;;;7.50;99.90;;;;;;5012893;28;20026;-86
2021/11/04 12:31:45;;;;;;;2.78;2.33;;;7.50;99.90;;;;;;5013682;28;20549;-84
2021/11/04 12:34:22;;;;;;;3.72;2.90;;;7.50;99.90;;;;;;5012328;28;20022;-84
2021/11/04 12:36:49;;;;;;;3.60;2.90;;;7.50;99.90;;;;;;5014004;28;20045;-84
2021/11/04 12:39:29;;;;;;;4.28;3.15;;;7.50;99.90;;;;;;5012576;28;20072;-83
2021/11/04 12:41:58;;;;;;;4.00;3.15;;;7.50;99.90;;;;;;5012550;28;20057;-81
2021/11/04 12:44:28;;;;;;;3.28;2.67;;;7.50;99.90;;;;;;5012506;28;20022;-82
2021/11/04 12:46:58;;;;;;;2.92;2.40;;;7.60;99.90;;;;;;5013735;28;20101;-81
2021/11/04 12:49:29;;;;;;;3.65;2.35;;;7.70;99.90;;;;;;5012456;28;20022;-81
2021/11/04 12:52:01;;;;;;;2.70;2.45;;;7.80;99.90;;;;;;5012469;28;20525;-82
2021/11/04 12:54:31;;;;;;;4.22;2.60;;;7.80;99.90;;;;;;5012408;28;20026;-82
2021/11/04 12:56:59;;;;;;;2.65;2.28;;;7.80;99.90;;;;;;5013421;28;20017;-81
2021/11/04 12:59:36;;;;;;;3.63;2.25;;;8.00;99.90;;;;;;5012320;28;20404;-81
2021/11/04 13:02:15;;;;;;;4.50;2.38;;;8.20;99.90;;;;;;5013608;28;20036;-82
2021/11/04 13:05:00;;;;;;;9.10;4.65;;;8.50;99.90;;;;;;5012288;28;20021;-81